Time;durP1;ratioP1;P1;durP2;ratioP2;P2;SDS_P1;SDS_P2;PMS_P1;PMS_P2;Temp;Humidity;BMP_temperature;BMP_pressure;BME280_temperature;BME280_humidity;BME280_pressure;Samples;Min_cycle;Max_cycle;Signal;HPM_P1;HPM_P2
2022/04/10 00:01:19;;;;;;;4.10;2.50;;;4.20;99.90;;;;;;5139997;27;20995;-82
2022/04/10 00:03:45;;;;;;;3.40;3.07;;;4.20;99.90;;;;;;5127702;27;20655;-82
2022/04/10 00:06:12;;;;;;;5.53;2.73;;;4.20;99.90;;;;;;5140573;27;20605;-82
2022/04/10 00:08:40;;;;;;;4.10;3.00;;;4.40;99.90;;;;;;5138646;27;21207;-82
2022/04/10 00:11:07;;;;;;;3.73;2.30;;;3.90;99.90;;;;;;5142522;27;21227;-83
2022/04/10 00:13:34;;;;;;;3.90;2.90;;;4.00;99.90;;;;;;5138310;27;20614;-81
2022/04/10 00:16:01;;;;;;;4.00;3.00;;;4.20;99.90;;;;;;5141133;27;20636;-81
2022/04/10 00:18:28;;;;;;;3.40;3.10;;;3.90;99.90;;;;;;5136804;27;20974;-82
2022/04/10 00:20:54;;;;;;;4.20;3.00;;;4.00;99.90;;;;;;5142434;27;20655;-82
2022/04/10 00:23:21;;;;;;;3.13;2.80;;;4.00;99.90;;;;;;5135921;27;20633;-82
2022/04/10 00:25:49;;;;;;;4.63;3.33;;;3.80;99.90;;;;;;5139713;27;21198;-82
2022/04/10 00:28:16;;;;;;;3.90;3.40;;;3.70;99.90;;;;;;5134907;27;20667;-82
2022/04/10 00:30:42;;;;;;;4.50;2.93;;;3.80;99.90;;;;;;5138883;27;20660;-82
2022/04/10 00:33:09;;;;;;;4.93;3.70;;;3.90;99.90;;;;;;5134424;27;21023;-82
2022/04/10 00:35:36;;;;;;;3.10;2.53;;;3.80;99.90;;;;;;5141042;27;20995;-82
2022/04/10 00:38:03;;;;;;;5.97;2.90;;;3.80;99.90;;;;;;5139833;27;20633;-82
2022/04/10 00:40:29;;;;;;;3.73;3.00;;;3.60;99.90;;;;;;5137321;27;20656;-81
2022/04/10 00:42:57;;;;;;;5.23;3.13;;;3.30;99.90;;;;;;5137919;27;20633;-81
2022/04/10 00:45:24;;;;;;;2.90;2.70;;;3.30;99.90;;;;;;5133880;27;20615;-83
2022/04/10 00:47:51;;;;;;;3.93;3.10;;;3.50;99.90;;;;;;5139807;27;20651;-81
2022/04/10 00:50:19;;;;;;;5.20;3.90;;;3.50;99.90;;;;;;5137551;27;20653;-82
2022/04/10 00:52:48;;;;;;;5.20;3.40;;;3.40;99.90;;;;;;5139070;27;20624;-82
2022/04/10 00:55:15;;;;;;;4.33;3.10;;;3.20;99.90;;;;;;5137573;27;20627;-81
2022/04/10 00:57:43;;;;;;;5.03;3.07;;;3.50;99.90;;;;;;5139811;27;20628;-82
2022/04/10 01:00:14;;;;;;;5.87;3.07;;;3.30;99.90;;;;;;5139543;27;20663;-81
2022/04/10 01:02:41;;;;;;;3.60;3.30;;;3.20;99.90;;;;;;5137151;27;20640;-81
2022/04/10 01:05:09;;;;;;;4.27;3.87;;;3.40;99.90;;;;;;5142942;27;21240;-81
2022/04/10 01:07:36;;;;;;;3.83;3.53;;;3.40;99.90;;;;;;5142162;27;20658;-81
2022/04/10 01:10:05;;;;;;;4.20;3.30;;;3.40;99.90;;;;;;5141695;27;21037;-82
2022/04/10 01:12:34;;;;;;;3.93;3.30;;;3.50;99.90;;;;;;5138921;27;20626;-82
2022/04/10 01:15:02;;;;;;;4.60;3.40;;;3.30;99.90;;;;;;5143702;27;20656;-82
2022/04/10 01:17:31;;;;;;;3.63;3.33;;;3.20;99.90;;;;;;5137785;27;20610;-82
2022/04/10 01:19:58;;;;;;;4.40;2.83;;;3.30;99.90;;;;;;5141906;27;20651;-82
2022/04/10 01:22:33;;;;;;;3.90;3.50;;;2.70;99.90;;;;;;5134936;27;20631;-82
2022/04/10 01:25:04;;;;;;;3.90;3.50;;;3.10;99.90;;;;;;5139487;27;21133;-82
2022/04/10 01:27:34;;;;;;;4.73;3.50;;;3.40;99.90;;;;;;5143539;27;21059;-82
2022/04/10 01:30:01;;;;;;;5.03;3.50;;;2.80;99.90;;;;;;5140523;27;20663;-82
2022/04/10 01:32:28;;;;;;;3.70;3.40;;;3.10;99.90;;;;;;5138884;27;21073;-82
2022/04/10 01:34:59;;;;;;;7.13;3.00;;;3.10;99.90;;;;;;5137373;27;20634;-82
2022/04/10 01:37:27;;;;;;;4.23;3.13;;;3.10;99.90;;;;;;5140680;27;20621;-82
2022/04/10 01:39:55;;;;;;;3.17;2.97;;;3.20;99.90;;;;;;5138620;27;20655;-82
2022/04/10 01:42:22;;;;;;;3.90;3.60;;;3.10;99.90;;;;;;5140353;27;20717;-81
2022/04/10 01:44:49;;;;;;;3.77;3.43;;;3.30;99.90;;;;;;5134240;27;20705;-81
2022/04/10 01:47:16;;;;;;;5.30;3.83;;;3.20;99.90;;;;;;5143990;27;20650;-82
2022/04/10 01:49:42;;;;;;;3.87;3.57;;;3.20;99.90;;;;;;5141947;27;21264;-81
2022/04/10 01:52:09;;;;;;;5.33;3.70;;;3.30;99.90;;;;;;5142747;27;20615;-84
2022/04/10 01:54:36;;;;;;;4.03;3.63;;;3.20;99.90;;;;;;5142939;27;20628;-81
2022/04/10 01:57:05;;;;;;;4.03;3.60;;;3.20;99.90;;;;;;5140611;27;20795;-81
2022/04/10 01:59:32;;;;;;;3.93;3.63;;;3.30;99.90;;;;;;5141414;27;20655;-83
2022/04/10 02:01:59;;;;;;;3.57;3.27;;;3.40;99.90;;;;;;5142387;27;20650;-81
2022/04/10 02:04:25;;;;;;;4.30;3.70;;;3.50;99.90;;;;;;5143252;27;21100;-81
2022/04/10 02:06:52;;;;;;;5.67;3.33;;;3.30;99.90;;;;;;5138288;27;20651;-82
2022/04/10 02:09:19;;;;;;;3.70;3.40;;;3.50;99.90;;;;;;5147597;27;20654;-82
2022/04/10 02:11:45;;;;;;;7.50;3.63;;;3.40;99.90;;;;;;5152868;27;20626;-81
2022/04/10 02:14:14;;;;;;;5.50;3.90;;;3.40;99.90;;;;;;5152075;27;20716;-81
2022/04/10 02:16:40;;;;;;;6.03;3.67;;;3.50;99.90;;;;;;5149045;27;20659;-82
2022/04/10 02:19:07;;;;;;;4.83;3.70;;;3.30;99.90;;;;;;5145294;27;20620;-81
2022/04/10 02:21:34;;;;;;;3.67;3.40;;;3.50;99.90;;;;;;5147172;27;21220;-82
2022/04/10 02:24:01;;;;;;;4.40;3.60;;;3.30;99.90;;;;;;5152612;27;20631;-81
2022/04/10 02:26:27;;;;;;;4.23;3.67;;;3.40;99.90;;;;;;5149422;27;20624;-81
2022/04/10 02:28:54;;;;;;;6.10;3.50;;;3.10;99.90;;;;;;5151755;27;20660;-81
2022/04/10 02:31:22;;;;;;;3.80;3.40;;;3.10;99.90;;;;;;5144393;27;20665;-81
2022/04/10 02:33:49;;;;;;;3.97;3.50;;;3.40;99.90;;;;;;5148021;27;20627;-81
2022/04/10 02:36:16;;;;;;;4.53;4.10;;;3.50;99.90;;;;;;5144073;27;21025;-81
2022/04/10 02:38:44;;;;;;;8.50;4.27;;;3.40;99.90;;;;;;5147457;27;20674;-81
2022/04/10 02:41:11;;;;;;;5.70;3.60;;;3.40;99.90;;;;;;5151281;27;20681;-82
2022/04/10 02:43:39;;;;;;;4.17;3.67;;;3.40;99.90;;;;;;5151825;27;20630;-82
2022/04/10 02:46:06;;;;;;;3.73;3.10;;;3.40;99.90;;;;;;5145432;27;20708;-82
2022/04/10 02:48:34;;;;;;;4.73;3.97;;;3.30;99.90;;;;;;5151292;27;20671;-81
2022/04/10 02:51:02;;;;;;;4.73;4.33;;;3.10;99.90;;;;;;5147410;27;20660;-81
2022/04/10 02:53:29;;;;;;;4.53;3.90;;;3.10;99.90;;;;;;5153412;27;20651;-82
2022/04/10 02:55:56;;;;;;;5.20;4.40;;;3.30;99.90;;;;;;5143737;27;20983;-82
2022/04/10 02:58:23;;;;;;;4.47;3.70;;;3.10;99.90;;;;;;5152449;27;21547;-82
2022/04/10 03:00:49;;;;;;;5.23;3.90;;;3.10;99.90;;;;;;5146914;27;21329;-81
2022/04/10 03:03:16;;;;;;;4.67;4.00;;;3.10;99.90;;;;;;5151586;27;20624;-82
2022/04/10 03:05:44;;;;;;;5.33;4.70;;;3.10;99.90;;;;;;5149525;27;20628;-82
2022/04/10 03:08:11;;;;;;;5.30;4.83;;;2.90;99.90;;;;;;5144501;27;21013;-82
2022/04/10 03:10:38;;;;;;;4.57;3.83;;;2.80;99.90;;;;;;5150534;27;20654;-82
2022/04/10 03:13:05;;;;;;;4.60;4.30;;;2.70;99.90;;;;;;5146973;27;20992;-81
2022/04/10 03:15:31;;;;;;;4.23;3.93;;;2.70;99.90;;;;;;5146873;27;20648;-81
2022/04/10 03:17:58;;;;;;;4.80;3.73;;;2.60;99.90;;;;;;5149280;27;20621;-82
2022/04/10 03:20:25;;;;;;;3.90;3.60;;;2.70;99.90;;;;;;5144498;27;20987;-82
2022/04/10 03:22:53;;;;;;;9.43;4.53;;;2.50;99.90;;;;;;5144907;27;20628;-81
2022/04/10 03:25:20;;;;;;;4.80;4.40;;;2.60;99.90;;;;;;5148382;27;20625;-81
2022/04/10 03:27:46;;;;;;;7.13;4.60;;;2.60;99.90;;;;;;5147222;27;20949;-81
2022/04/10 03:30:13;;;;;;;6.13;4.97;;;2.60;99.90;;;;;;5140723;27;20646;-81
2022/04/10 03:32:41;;;;;;;5.03;4.53;;;2.40;99.90;;;;;;5144194;27;20617;-81
2022/04/10 03:35:08;;;;;;;5.10;3.67;;;2.00;99.90;;;;;;5146829;27;21025;-82
2022/04/10 03:37:35;;;;;;;7.00;4.37;;;2.40;99.90;;;;;;5144735;27;20626;-81
2022/04/10 03:40:04;;;;;;;4.77;4.03;;;2.40;99.90;;;;;;5145004;27;20647;-81
2022/04/10 03:42:38;;;;;;;4.70;3.87;;;2.10;99.90;;;;;;5142856;27;20628;-81
2022/04/10 03:45:06;;;;;;;5.60;3.90;;;2.30;99.90;;;;;;5139153;27;20719;-83
2022/04/10 03:47:32;;;;;;;4.57;4.17;;;2.00;99.90;;;;;;5127465;27;20634;-81
2022/04/10 03:49:59;;;;;;;6.27;4.23;;;2.00;99.90;;;;;;5139541;27;20682;-82
2022/04/10 03:52:26;;;;;;;4.13;3.70;;;1.90;99.90;;;;;;5134025;27;20618;-83
2022/04/10 03:54:53;;;;;;;4.57;4.27;;;1.80;99.90;;;;;;5143130;27;21105;-83
2022/04/10 03:57:21;;;;;;;4.70;4.03;;;2.20;99.90;;;;;;5142867;27;20626;-80
2022/04/10 03:59:47;;;;;;;4.23;3.83;;;1.80;99.90;;;;;;5146230;27;20652;-83
2022/04/10 04:02:16;;;;;;;4.53;3.77;;;1.80;99.90;;;;;;5147308;27;20633;-83
2022/04/10 04:04:43;;;;;;;5.50;4.60;;;2.00;99.90;;;;;;5145502;27;20650;-83
2022/04/10 04:07:10;;;;;;;4.70;4.27;;;2.10;99.90;;;;;;5144882;27;21083;-81
2022/04/10 04:09:36;;;;;;;4.80;4.40;;;1.70;99.90;;;;;;5142791;27;20767;-82
2022/04/10 04:12:03;;;;;;;5.47;5.10;;;1.70;99.90;;;;;;5143002;27;21191;-82
2022/04/10 04:14:31;;;;;;;4.50;4.10;;;1.70;99.90;;;;;;5146609;27;20728;-82
2022/04/10 04:16:59;;;;;;;5.10;4.50;;;1.70;99.90;;;;;;5139933;27;20984;-82
2022/04/10 04:19:25;;;;;;;6.70;6.00;;;1.80;99.90;;;;;;5142524;27;21222;-82
2022/04/10 04:21:52;;;;;;;5.30;4.77;;;1.80;99.90;;;;;;5140434;27;20617;-81
2022/04/10 04:24:19;;;;;;;5.37;4.90;;;1.70;99.90;;;;;;5147401;27;21179;-82
2022/04/10 04:26:45;;;;;;;6.10;5.20;;;1.30;99.90;;;;;;5143341;27;20621;-82
2022/04/10 04:29:12;;;;;;;4.80;4.40;;;1.70;99.90;;;;;;5140796;27;20662;-82
2022/04/10 04:31:40;;;;;;;5.30;4.93;;;1.30;99.90;;;;;;5136162;27;20630;-82
2022/04/10 04:34:09;;;;;;;5.87;5.37;;;1.80;99.90;;;;;;5137336;27;20631;-82
2022/04/10 04:36:36;;;;;;;6.80;5.00;;;2.00;99.90;;;;;;5145721;27;20717;-82
2022/04/10 04:39:03;;;;;;;5.60;5.10;;;2.10;99.90;;;;;;5142129;27;20616;-82
2022/04/10 04:41:29;;;;;;;7.43;5.87;;;2.00;99.90;;;;;;5144802;27;20641;-82
2022/04/10 04:43:56;;;;;;;5.90;5.40;;;2.00;99.90;;;;;;5144865;27;20638;-82
2022/04/10 04:46:23;;;;;;;6.17;5.57;;;1.90;99.90;;;;;;5136347;27;20626;-82
2022/04/10 04:48:51;;;;;;;5.53;5.10;;;2.10;99.90;;;;;;5143862;27;21040;-82
2022/04/10 04:51:18;;;;;;;5.40;4.90;;;2.30;99.90;;;;;;5138820;27;20653;-81
2022/04/10 04:53:44;;;;;;;5.30;4.80;;;2.00;99.90;;;;;;5139323;27;20637;-82
2022/04/10 04:56:11;;;;;;;6.50;5.30;;;2.10;99.90;;;;;;5145069;27;20626;-82
2022/04/10 04:58:38;;;;;;;5.93;5.37;;;2.30;99.90;;;;;;5144671;27;20701;-82
2022/04/10 05:01:05;;;;;;;6.50;5.80;;;2.30;99.90;;;;;;5136434;27;20663;-81
2022/04/10 05:03:31;;;;;;;9.07;6.20;;;2.30;99.90;;;;;;5140101;27;20622;-82
2022/04/10 05:05:59;;;;;;;6.70;6.00;;;2.30;99.90;;;;;;5142666;27;20633;-82
2022/04/10 05:08:26;;;;;;;6.90;6.33;;;2.60;99.90;;;;;;5139164;27;20629;-82
2022/04/10 05:10:53;;;;;;;8.70;6.10;;;2.30;99.90;;;;;;5145882;27;20665;-83
2022/04/10 05:13:20;;;;;;;6.47;5.87;;;2.00;99.90;;;;;;5139722;27;21224;-82
2022/04/10 05:15:46;;;;;;;6.70;5.97;;;2.80;99.90;;;;;;5136761;27;20627;-82
2022/04/10 05:18:16;;;;;;;5.63;5.20;;;2.80;99.90;;;;;;5142604;27;20632;-82
2022/04/10 05:20:43;;;;;;;6.10;5.50;;;2.90;99.90;;;;;;5144183;27;21039;-82
2022/04/10 05:23:11;;;;;;;7.50;6.87;;;2.70;99.90;;;;;;5141802;27;20633;-82
2022/04/10 05:25:38;;;;;;;15.40;13.40;;;2.90;99.90;;;;;;5141271;27;20613;-83
2022/04/10 05:28:05;;;;;;;20.40;18.40;;;2.80;99.90;;;;;;5143870;27;20629;-83
2022/04/10 05:30:32;;;;;;;15.30;13.90;;;2.90;99.90;;;;;;5140546;27;20681;-82
2022/04/10 05:32:58;;;;;;;14.97;13.50;;;3.00;99.90;;;;;;5145499;27;20702;-82
2022/04/10 05:35:25;;;;;;;10.47;9.47;;;2.70;99.90;;;;;;5143646;27;20633;-82
2022/04/10 05:37:52;;;;;;;9.57;8.30;;;2.90;99.90;;;;;;5139092;27;21184;-82
2022/04/10 05:40:21;;;;;;;8.93;8.13;;;3.10;99.90;;;;;;5144161;27;20654;-82
2022/04/10 05:42:47;;;;;;;11.33;10.13;;;3.40;99.90;;;;;;5144428;27;20617;-82
2022/04/10 05:45:14;;;;;;;10.80;9.70;;;3.20;99.90;;;;;;5143961;27;20709;-83
2022/04/10 05:47:43;;;;;;;10.53;9.53;;;3.30;99.90;;;;;;5136545;27;20710;-81
2022/04/10 05:50:11;;;;;;;9.80;8.83;;;3.50;99.90;;;;;;5140420;27;20675;-81
2022/04/10 05:52:39;;;;;;;11.10;7.30;;;3.40;99.90;;;;;;5143304;27;21188;-82
2022/04/10 05:55:07;;;;;;;7.03;6.40;;;3.60;99.90;;;;;;5140026;27;20992;-82
2022/04/10 05:57:36;;;;;;;6.03;5.50;;;3.40;99.90;;;;;;5141659;27;20631;-82
2022/04/10 06:00:04;;;;;;;6.50;5.93;;;3.70;99.90;;;;;;5140592;27;21365;-83
2022/04/10 06:02:31;;;;;;;9.07;6.10;;;3.80;99.90;;;;;;5136774;27;20763;-83
2022/04/10 06:04:58;;;;;;;6.60;5.77;;;3.70;99.90;;;;;;5141002;27;20645;-83
2022/04/10 06:07:25;;;;;;;6.53;5.90;;;3.80;99.90;;;;;;5139851;27;20625;-83
2022/04/10 06:09:52;;;;;;;6.17;5.60;;;3.60;99.90;;;;;;5139144;27;20674;-83
2022/04/10 06:12:19;;;;;;;7.90;5.50;;;3.90;99.90;;;;;;5138579;27;20661;-83
2022/04/10 06:14:47;;;;;;;6.07;5.47;;;3.90;99.90;;;;;;5139085;27;20628;-83
2022/04/10 06:17:13;;;;;;;6.27;5.87;;;4.20;99.90;;;;;;5137535;27;20633;-83
2022/04/10 06:19:40;;;;;;;6.20;5.70;;;4.20;99.90;;;;;;5136558;27;20671;-83
2022/04/10 06:22:08;;;;;;;5.67;5.30;;;4.20;99.90;;;;;;5138633;27;21048;-83
2022/04/10 06:24:35;;;;;;;6.60;6.00;;;4.30;99.90;;;;;;5138458;27;20637;-83
2022/04/10 06:27:02;;;;;;;7.30;6.70;;;4.40;99.90;;;;;;5146020;27;20982;-83
2022/04/10 06:29:29;;;;;;;9.00;8.20;;;4.50;99.90;;;;;;5140511;27;20649;-83
2022/04/10 06:31:57;;;;;;;6.10;5.70;;;4.60;99.90;;;;;;5146379;27;20628;-83
2022/04/10 06:34:23;;;;;;;6.00;5.50;;;4.70;99.90;;;;;;5138093;27;20610;-83
2022/04/10 06:36:51;;;;;;;6.47;5.87;;;5.20;99.90;;;;;;5141131;27;20661;-83
2022/04/10 06:39:18;;;;;;;6.37;5.20;;;5.40;99.90;;;;;;5140435;27;20612;-83
2022/04/10 06:41:45;;;;;;;5.70;5.30;;;5.10;99.90;;;;;;5137997;27;21191;-83
2022/04/10 06:44:12;;;;;;;5.70;5.13;;;5.60;99.90;;;;;;5141964;27;20632;-83
2022/04/10 06:46:38;;;;;;;5.37;4.87;;;5.50;99.90;;;;;;5135963;27;20634;-83
2022/04/10 06:49:07;;;;;;;6.07;5.57;;;5.80;99.90;;;;;;5142750;27;20625;-83
2022/04/10 06:51:33;;;;;;;5.33;4.90;;;5.80;99.90;;;;;;5138856;27;20684;-83
2022/04/10 06:54:00;;;;;;;5.87;5.37;;;5.80;99.90;;;;;;5138175;27;20612;-83
2022/04/10 06:56:27;;;;;;;6.20;5.70;;;5.50;99.90;;;;;;5144227;27;21001;-84
2022/04/10 06:58:53;;;;;;;8.20;7.50;;;6.20;99.90;;;;;;5144864;27;20640;-83
2022/04/10 07:01:20;;;;;;;7.00;5.53;;;6.00;99.90;;;;;;5145310;27;20661;-84
2022/04/10 07:03:47;;;;;;;5.77;5.37;;;6.30;99.90;;;;;;5140095;27;20632;-84
2022/04/10 07:06:15;;;;;;;5.77;5.17;;;6.10;99.90;;;;;;5147800;27;20629;-84
2022/04/10 07:08:42;;;;;;;6.13;5.57;;;6.10;99.90;;;;;;5150075;27;21081;-83
2022/04/10 07:11:09;;;;;;;8.40;6.37;;;6.40;99.90;;;;;;5147133;27;20677;-83
2022/04/10 07:13:35;;;;;;;6.30;5.70;;;6.30;99.90;;;;;;5141187;27;20983;-84
2022/04/10 07:16:02;;;;;;;9.07;7.97;;;6.30;99.90;;;;;;5142333;27;20614;-83
2022/04/10 07:18:29;;;;;;;6.70;6.10;;;6.30;99.90;;;;;;5143548;27;20630;-83
2022/04/10 07:20:55;;;;;;;11.23;10.17;;;6.30;99.90;;;;;;5144409;27;20648;-84
2022/04/10 07:26:09;;;;;;;6.00;5.40;;;6.00;99.90;;;;;;5143238;27;20646;-83
2022/04/10 07:28:37;;;;;;;5.37;4.87;;;6.50;99.90;;;;;;5146735;27;21189;-83
2022/04/10 07:31:05;;;;;;;9.90;8.10;;;6.50;99.90;;;;;;5143593;27;20676;-83
2022/04/10 07:33:32;;;;;;;7.20;5.73;;;6.90;99.90;;;;;;5139534;27;20668;-83
2022/04/10 07:35:58;;;;;;;5.60;5.10;;;6.60;99.90;;;;;;5153173;27;20996;-83
2022/04/10 07:38:26;;;;;;;4.67;4.27;;;6.60;99.90;;;;;;5140459;27;20636;-83
2022/04/10 07:40:53;;;;;;;5.40;4.90;;;6.90;99.90;;;;;;5145687;27;21037;-83
2022/04/10 07:43:20;;;;;;;5.43;4.63;;;7.30;99.90;;;;;;5141038;27;20654;-83
2022/04/10 07:48:31;;;;;;;6.47;5.23;;;7.90;99.90;;;;;;5144642;27;20573;-84
2022/04/10 07:50:58;;;;;;;5.83;5.20;;;7.90;99.90;;;;;;5145410;27;20677;-84
2022/04/10 07:53:24;;;;;;;6.47;5.10;;;8.00;99.90;;;;;;5136814;27;21013;-83
2022/04/10 07:55:52;;;;;;;5.30;4.60;;;8.00;99.90;;;;;;5144522;27;21206;-83
2022/04/10 07:58:20;;;;;;;5.60;5.10;;;8.40;99.90;;;;;;5142339;27;21052;-82
2022/04/10 08:00:46;;;;;;;6.20;4.80;;;8.20;99.90;;;;;;5140917;27;21201;-83
2022/04/10 08:03:13;;;;;;;5.43;4.93;;;8.40;99.90;;;;;;5138261;27;21144;-83
2022/04/10 08:05:40;;;;;;;5.33;4.83;;;8.20;99.90;;;;;;5141419;27;20622;-83
2022/04/10 08:08:07;;;;;;;5.83;4.40;;;8.70;99.90;;;;;;5137715;27;21020;-83
2022/04/10 08:10:34;;;;;;;5.60;4.93;;;8.90;99.90;;;;;;5143176;27;20670;-84
2022/04/10 08:13:02;;;;;;;5.03;4.57;;;8.60;99.90;;;;;;5142160;27;20636;-83
2022/04/10 08:15:28;;;;;;;4.53;3.87;;;9.20;99.90;;;;;;5143735;27;20625;-83
2022/04/10 08:17:56;;;;;;;4.60;4.00;;;9.00;99.90;;;;;;5144570;27;20631;-82
2022/04/10 08:20:23;;;;;;;3.93;3.60;;;9.00;99.90;;;;;;5146894;27;20744;-83
2022/04/10 08:22:50;;;;;;;7.97;4.00;;;9.50;99.90;;;;;;5144434;27;20610;-84
2022/04/10 08:25:17;;;;;;;4.17;3.77;;;9.20;99.90;;;;;;5142817;27;20630;-83
2022/04/10 08:27:44;;;;;;;4.97;4.30;;;9.40;99.90;;;;;;5144480;27;20671;-84
2022/04/10 08:30:13;;;;;;;5.30;3.97;;;9.30;99.90;;;;;;5136833;27;20752;-83
2022/04/10 08:32:42;;;;;;;6.37;4.10;;;9.50;99.90;;;;;;5140099;27;20648;-83
2022/04/10 08:35:09;;;;;;;4.60;4.20;;;9.40;99.90;;;;;;5142784;27;20614;-83
2022/04/10 08:37:36;;;;;;;5.30;4.10;;;10.00;98.20;;;;;;5138038;27;20626;-83
2022/04/10 08:40:05;;;;;;;4.50;4.10;;;9.60;98.60;;;;;;5142912;27;20648;-83
2022/04/10 08:42:32;;;;;;;4.30;3.90;;;9.80;97.00;;;;;;5143229;27;20636;-83
2022/04/10 08:44:59;;;;;;;6.00;4.33;;;10.00;97.00;;;;;;5137391;27;20620;-84
2022/04/10 08:47:30;;;;;;;4.23;3.93;;;10.00;97.50;;;;;;5138646;27;20637;-83
2022/04/10 08:49:57;;;;;;;4.20;3.77;;;9.80;97.00;;;;;;5138374;27;20669;-83
2022/04/10 08:52:24;;;;;;;9.53;5.10;;;10.10;95.90;;;;;;5133507;27;21462;-84
2022/04/10 08:54:51;;;;;;;6.43;5.57;;;10.00;94.10;;;;;;5137930;27;20632;-84
2022/04/10 08:57:18;;;;;;;4.93;4.03;;;10.10;94.80;;;;;;5144335;27;20713;-84
2022/04/10 08:59:45;;;;;;;5.30;3.73;;;10.10;95.30;;;;;;5142131;27;20646;-84
2022/04/10 09:02:13;;;;;;;7.17;4.30;;;9.80;95.30;;;;;;5143465;27;21103;-83
2022/04/10 09:04:41;;;;;;;4.97;4.20;;;9.90;93.50;;;;;;5140229;27;20614;-84
2022/04/10 09:07:10;;;;;;;3.97;3.60;;;10.00;92.10;;;;;;5139468;27;20610;-83
2022/04/10 09:09:41;;;;;;;6.30;4.03;;;9.80;93.40;;;;;;5141667;27;21775;-84
2022/04/10 09:12:08;;;;;;;4.30;3.90;;;10.00;93.50;;;;;;5138804;27;20622;-83
2022/04/10 09:14:37;;;;;;;4.70;4.37;;;10.40;94.30;;;;;;5145163;27;20617;-83
2022/04/10 09:17:12;;;;;;;5.90;4.30;;;10.40;93.00;;;;;;5146580;27;20621;-84
2022/04/10 09:19:42;;;;;;;5.40;3.87;;;10.20;92.30;;;;;;5141870;27;20637;-83
2022/04/10 09:22:25;;;;;;;6.40;4.20;;;10.40;92.40;;;;;;5138070;27;20630;-84
2022/04/10 09:25:02;;;;;;;5.70;4.63;;;9.90;91.90;;;;;;5139578;27;20633;-84
2022/04/10 09:27:30;;;;;;;4.40;3.87;;;10.00;91.90;;;;;;5136988;27;20621;-83
2022/04/10 09:29:57;;;;;;;3.97;3.57;;;10.20;93.10;;;;;;5138302;27;20653;-84
2022/04/10 09:32:24;;;;;;;4.10;3.17;;;10.20;90.80;;;;;;5137890;27;20643;-84
2022/04/10 09:34:57;;;;;;;5.17;3.53;;;10.10;87.70;;;;;;5144536;27;20629;-84
2022/04/10 09:37:27;;;;;;;7.70;3.60;;;10.30;87.10;;;;;;5141326;27;20624;-83
2022/04/10 09:39:54;;;;;;;3.93;3.63;;;10.50;87.50;;;;;;5138271;27;20714;-83
2022/04/10 09:42:31;;;;;;;3.80;3.30;;;10.20;83.60;;;;;;5140441;27;20640;-83
2022/04/10 09:44:58;;;;;;;4.00;3.70;;;10.50;84.20;;;;;;5144190;27;20700;-83
2022/04/10 09:47:26;;;;;;;4.33;3.93;;;10.50;82.60;;;;;;5136113;27;20725;-83
2022/04/10 09:49:53;;;;;;;10.40;3.37;;;10.20;83.90;;;;;;5136717;27;20747;-83
2022/04/10 09:52:21;;;;;;;3.23;2.93;;;10.30;82.30;;;;;;5130665;27;21028;-83
2022/04/10 09:54:50;;;;;;;4.00;3.50;;;10.30;83.60;;;;;;5139467;27;20625;-83
2022/04/10 09:57:18;;;;;;;4.23;3.83;;;10.00;84.30;;;;;;5142668;27;20618;-83
2022/04/10 09:59:46;;;;;;;5.10;3.57;;;9.90;86.70;;;;;;5138978;27;20660;-83
2022/04/10 10:02:15;;;;;;;5.77;3.53;;;9.90;86.30;;;;;;5141704;27;20641;-83
2022/04/10 10:04:43;;;;;;;6.93;3.57;;;10.30;87.60;;;;;;5139930;27;20629;-83
2022/04/10 10:07:11;;;;;;;8.10;3.33;;;10.30;89.20;;;;;;5135661;27;20622;-84
2022/04/10 10:09:40;;;;;;;4.57;3.73;;;10.00;89.80;;;;;;5137530;27;20653;-84
2022/04/10 10:12:08;;;;;;;6.00;4.10;;;10.60;89.50;;;;;;5142347;27;20673;-84
2022/04/10 10:14:36;;;;;;;6.63;3.80;;;10.80;84.00;;;;;;5142331;27;21154;-84
2022/04/10 10:17:05;;;;;;;4.30;3.20;;;10.70;82.50;;;;;;5140096;27;20637;-84
2022/04/10 10:19:34;;;;;;;3.40;3.10;;;11.30;77.20;;;;;;5135010;27;20656;-84
2022/04/10 10:22:01;;;;;;;3.80;3.50;;;10.70;74.40;;;;;;5139010;27;20622;-84
2022/04/10 10:24:33;;;;;;;5.30;2.67;;;10.80;75.70;;;;;;5141432;27;20628;-83
2022/04/10 10:27:22;;;;;;;3.97;3.30;;;11.20;75.40;;;;;;5140668;27;20618;-84
2022/04/10 10:30:08;;;;;;;3.50;3.17;;;11.10;75.30;;;;;;5118954;27;21054;-84
2022/04/10 10:32:41;;;;;;;4.43;3.10;;;11.00;77.10;;;;;;5146962;27;20639;-84
2022/04/10 10:35:11;;;;;;;3.53;3.23;;;11.00;77.10;;;;;;5146492;27;20934;-84
2022/04/10 10:37:52;;;;;;;5.67;3.27;;;11.10;76.10;;;;;;5147694;27;20673;-84
2022/04/10 10:40:19;;;;;;;3.70;3.20;;;11.20;75.40;;;;;;5148656;27;20679;-84
2022/04/10 10:42:50;;;;;;;5.27;3.10;;;10.90;70.50;;;;;;5142750;27;20636;-84
2022/04/10 10:45:36;;;;;;;3.50;2.80;;;11.60;72.70;;;;;;5145853;27;20630;-84
2022/04/10 10:48:35;;;;;;;6.57;4.00;;;11.10;75.40;;;;;;5151431;27;20621;-84
2022/04/10 10:51:03;;;;;;;4.90;3.70;;;10.80;83.30;;;;;;5146887;27;20776;-83
2022/04/10 10:53:44;;;;;;;6.40;3.93;;;10.30;95.80;;;;;;5145724;27;20616;-83
2022/04/10 10:56:15;;;;;;;5.03;3.93;;;9.90;99.90;;;;;;5140951;27;20656;-83
2022/04/10 10:58:43;;;;;;;5.10;3.50;;;9.90;99.90;;;;;;5143390;27;20992;-83
2022/04/10 11:01:18;;;;;;;3.77;3.23;;;9.80;99.90;;;;;;5144989;27;21441;-83
2022/04/10 11:04:00;;;;;;;3.73;3.43;;;9.50;99.90;;;;;;5142267;27;21190;-83
2022/04/10 11:06:29;;;;;;;5.70;3.80;;;9.70;99.90;;;;;;5145121;27;20629;-84
2022/04/10 11:08:56;;;;;;;4.90;3.80;;;9.60;99.90;;;;;;5139792;27;20633;-84
2022/04/10 11:11:35;;;;;;;7.13;4.63;;;9.40;99.90;;;;;;5150559;27;21222;-84
2022/04/10 11:14:03;;;;;;;6.43;4.40;;;9.40;99.90;;;;;;5156018;27;20636;-84
2022/04/10 11:16:30;;;;;;;7.93;4.40;;;9.90;99.90;;;;;;5144686;27;20620;-83
2022/04/10 11:19:02;;;;;;;4.87;4.40;;;9.90;99.90;;;;;;5147229;27;20625;-84
2022/04/10 11:21:31;;;;;;;6.13;4.80;;;9.40;97.40;;;;;;5143472;27;21225;-84
2022/04/10 11:24:00;;;;;;;8.17;4.50;;;9.80;98.20;;;;;;5144041;27;20968;-83
2022/04/10 11:26:35;;;;;;;4.57;4.13;;;10.00;97.90;;;;;;5143827;27;20705;-83
2022/04/10 11:29:05;;;;;;;4.00;3.60;;;9.60;99.30;;;;;;5143667;27;20616;-83
2022/04/10 11:31:36;;;;;;;3.80;3.50;;;9.80;98.20;;;;;;5147493;27;20681;-83
2022/04/10 11:34:11;;;;;;;4.03;2.90;;;9.80;96.60;;;;;;5147945;27;20625;-83
2022/04/10 11:36:56;;;;;;;2.43;2.23;;;10.70;91.30;;;;;;5140983;27;20621;-83
2022/04/10 11:39:28;;;;;;;2.70;2.50;;;11.20;86.00;;;;;;5145530;27;20611;-83
2022/04/10 11:41:58;;;;;;;3.40;2.10;;;12.00;82.70;;;;;;5145257;27;20662;-84
2022/04/10 11:44:27;;;;;;;2.13;1.93;;;12.40;80.30;;;;;;5148542;27;20614;-83
2022/04/10 11:46:53;;;;;;;3.87;2.20;;;12.70;76.10;;;;;;5143364;27;20629;-83
2022/04/10 11:49:20;;;;;;;4.07;2.70;;;12.70;74.30;;;;;;5138872;27;20629;-83
2022/04/10 11:51:55;;;;;;;4.50;2.80;;;12.70;74.00;;;;;;5146246;27;20756;-83
2022/04/10 11:54:31;;;;;;;4.20;2.83;;;12.70;75.20;;;;;;5141828;27;20632;-83
2022/04/10 11:57:00;;;;;;;4.60;2.50;;;12.80;73.20;;;;;;5145339;27;20643;-83
2022/04/10 11:59:33;;;;;;;2.80;2.57;;;12.80;72.20;;;;;;5142607;27;21172;-83
2022/04/10 12:02:00;;;;;;;3.10;2.40;;;12.70;72.80;;;;;;5147048;27;20618;-83
2022/04/10 12:04:28;;;;;;;4.17;2.43;;;12.70;71.60;;;;;;5147155;27;20625;-84
2022/04/10 12:07:09;;;;;;;5.03;3.00;;;12.90;74.40;;;;;;5141993;27;20995;-84
2022/04/10 12:09:36;;;;;;;3.30;2.70;;;13.20;70.50;;;;;;5139873;27;20656;-84
2022/04/10 12:12:03;;;;;;;3.60;2.23;;;13.70;68.10;;;;;;5144453;27;21394;-84
2022/04/10 12:14:31;;;;;;;3.50;2.83;;;14.00;66.10;;;;;;5144995;27;21431;-84
2022/04/10 12:16:59;;;;;;;2.50;2.30;;;14.40;63.50;;;;;;5142385;27;20998;-84
2022/04/10 12:19:31;;;;;;;3.30;3.10;;;14.80;61.00;;;;;;5146823;27;21089;-84
2022/04/10 12:21:58;;;;;;;3.93;3.40;;;14.90;59.40;;;;;;5144012;27;20717;-84
2022/04/10 12:24:25;;;;;;;5.30;3.40;;;14.50;59.50;;;;;;5139049;27;20639;-84
2022/04/10 12:26:52;;;;;;;3.23;2.70;;;14.20;60.30;;;;;;5143689;27;21191;-85
2022/04/10 12:29:19;;;;;;;3.57;3.27;;;13.90;61.20;;;;;;5146049;27;20622;-84
2022/04/10 12:31:49;;;;;;;4.37;3.87;;;13.60;62.60;;;;;;5135376;27;20666;-83
2022/04/10 12:34:16;;;;;;;3.30;3.10;;;13.10;80.90;;;;;;5136053;27;20962;-82
2022/04/10 12:36:47;;;;;;;4.63;3.57;;;12.40;93.10;;;;;;5146771;27;20606;-83
2022/04/10 12:39:26;;;;;;;4.57;3.53;;;11.80;97.20;;;;;;5137354;27;20614;-83
2022/04/10 12:42:01;;;;;;;5.77;4.13;;;11.20;99.90;;;;;;5146886;27;21032;-83
2022/04/10 12:44:28;;;;;;;5.30;4.53;;;11.00;99.90;;;;;;5139482;27;20620;-83
2022/04/10 12:46:56;;;;;;;4.97;4.57;;;10.70;99.90;;;;;;5140358;27;20721;-83
2022/04/10 12:49:24;;;;;;;4.23;3.83;;;11.00;99.90;;;;;;5143668;27;20625;-83
2022/04/10 12:51:54;;;;;;;4.47;3.20;;;11.20;99.90;;;;;;5143081;27;20757;-83
2022/04/10 12:54:34;;;;;;;5.33;4.17;;;11.20;99.90;;;;;;5143356;27;20755;-83
2022/04/10 12:57:02;;;;;;;7.50;4.10;;;11.50;99.90;;;;;;5145809;27;20620;-83
2022/04/10 12:59:39;;;;;;;4.53;4.03;;;11.40;99.90;;;;;;5143191;27;20618;-83
2022/04/10 13:02:11;;;;;;;4.03;3.63;;;11.60;99.90;;;;;;5143235;27;20990;-84
2022/04/10 13:04:38;;;;;;;4.20;3.80;;;11.60;99.90;;;;;;5139738;27;20641;-83